sensor_id;sensor_type;location;lat;lon;timestamp;pressure;altitude;pressure_sealevel;temperature;humidity
59329;BME280;45100;46.926;7.452;2023-12-07T08:49:15;95510.19;;;-0.66;100.00
59329;BME280;45100;46.926;7.452;2023-12-07T08:51:43;95509.98;;;-0.63;100.00
59329;BME280;45100;46.926;7.452;2023-12-07T08:54:14;95510.72;;;-0.61;100.00
59329;BME280;45100;46.926;7.452;2023-12-07T08:59:17;95499.02;;;-0.56;100.00
59329;BME280;45100;46.926;7.452;2023-12-07T09:01:47;95495.09;;;-0.54;100.00
59329;BME280;45100;46.926;7.452;2023-12-07T09:04:18;95491.48;;;-0.51;100.00
59329;BME280;45100;46.926;7.452;2023-12-07T09:06:47;95483.43;;;-0.49;100.00
59329;BME280;45100;46.926;7.452;2023-12-07T09:09:19;95479.99;;;-0.47;100.00
59329;BME280;45100;46.926;7.452;2023-12-07T09:11:49;95480.75;;;-0.46;99.93
59329;BME280;45100;46.926;7.452;2023-12-07T09:14:20;95479.23;;;-0.44;99.96
59329;BME280;45100;46.926;7.452;2023-12-07T09:16:50;95468.28;;;-0.40;100.00
59329;BME280;45100;46.926;7.452;2023-12-07T09:19:21;95476.41;;;-0.37;100.00
59329;BME280;45100;46.926;7.452;2023-12-07T09:21:52;95482.70;;;-0.32;100.00
59329;BME280;45100;46.926;7.452;2023-12-07T09:24:23;95476.45;;;-0.28;100.00
59329;BME280;45100;46.926;7.452;2023-12-07T09:26:53;95477.71;;;-0.22;100.00
59329;BME280;45100;46.926;7.452;2023-12-07T09:29:24;95480.06;;;-0.16;100.00
59329;BME280;45100;46.926;7.452;2023-12-07T09:31:55;95484.70;;;-0.07;100.00
59329;BME280;45100;46.926;7.452;2023-12-07T09:34:26;95477.23;;;0.02;100.00
59329;BME280;45100;46.926;7.452;2023-12-07T09:37:06;95469.86;;;0.11;100.00
59329;BME280;45100;46.926;7.452;2023-12-07T09:39:26;95472.45;;;0.18;100.00
59329;BME280;45100;46.926;7.452;2023-12-07T09:41:57;95467.41;;;0.24;100.00
59329;BME280;45100;46.926;7.452;2023-12-07T09:44:28;95465.44;;;0.32;100.00
59329;BME280;45100;46.926;7.452;2023-12-07T09:46:58;95460.09;;;0.38;100.00
59329;BME280;45100;46.926;7.452;2023-12-07T09:49:29;95472.83;;;0.46;100.00
59329;BME280;45100;46.926;7.452;2023-12-07T09:52:00;95483.02;;;0.57;100.00
59329;BME280;45100;46.926;7.452;2023-12-07T09:54:30;95480.49;;;0.70;100.00
59329;BME280;45100;46.926;7.452;2023-12-07T09:59:33;95476.72;;;0.99;99.54
59329;BME280;45100;46.926;7.452;2023-12-07T10:02:04;95478.38;;;1.11;98.46
59329;BME280;45100;46.926;7.452;2023-12-07T10:04:33;95483.17;;;1.22;98.01
59329;BME280;45100;46.926;7.452;2023-12-07T10:07:04;95473.88;;;1.32;96.57
59329;BME280;45100;46.926;7.452;2023-12-07T10:09:38;95462.11;;;1.43;94.66
59329;BME280;45100;46.926;7.452;2023-12-07T10:12:05;95460.05;;;1.56;94.06
59329;BME280;45100;46.926;7.452;2023-12-07T10:14:37;95461.42;;;1.72;93.76
59329;BME280;45100;46.926;7.452;2023-12-07T10:17:06;95461.01;;;1.83;92.75
59329;BME280;45100;46.926;7.452;2023-12-07T10:19:37;95464.45;;;1.92;91.56
59329;BME280;45100;46.926;7.452;2023-12-07T10:22:14;95468.47;;;1.91;88.05
59329;BME280;45100;46.926;7.452;2023-12-07T10:24:39;95473.38;;;1.89;88.12
59329;BME280;45100;46.926;7.452;2023-12-07T10:27:09;95473.82;;;1.88;88.89
59329;BME280;45100;46.926;7.452;2023-12-07T10:29:40;95471.03;;;1.87;90.12
59329;BME280;45100;46.926;7.452;2023-12-07T10:32:10;95459.58;;;1.83;90.64
59329;BME280;45100;46.926;7.452;2023-12-07T10:34:41;95458.64;;;1.73;91.25
59329;BME280;45100;46.926;7.452;2023-12-07T10:37:12;95454.66;;;1.58;92.55
59329;BME280;45100;46.926;7.452;2023-12-07T10:39:43;95457.06;;;1.51;94.06
59329;BME280;45100;46.926;7.452;2023-12-07T10:42:16;95456.98;;;1.47;94.36
59329;BME280;45100;46.926;7.452;2023-12-07T10:50:00;95464.58;;;1.38;95.55
59329;BME280;45100;46.926;7.452;2023-12-07T10:52:32;95472.27;;;1.32;95.99
59329;BME280;45100;46.926;7.452;2023-12-07T10:55:08;95466.77;;;1.26;96.80
59329;BME280;45100;46.926;7.452;2023-12-07T10:57:30;95463.38;;;1.24;97.25
59329;BME280;45100;46.926;7.452;2023-12-07T11:00:00;95454.30;;;1.21;97.88
59329;BME280;45100;46.926;7.452;2023-12-07T11:02:29;95448.44;;;1.24;98.28
59329;BME280;45100;46.926;7.452;2023-12-07T11:05:00;95443.80;;;1.21;97.56
59329;BME280;45100;46.926;7.452;2023-12-07T11:07:52;95450.94;;;1.22;97.82
59329;BME280;45100;46.926;7.452;2023-12-07T11:10:07;95448.62;;;1.18;97.27
59329;BME280;45100;46.926;7.452;2023-12-07T11:12:54;95447.70;;;1.17;97.76
59329;BME280;45100;46.926;7.452;2023-12-07T11:15:03;95447.06;;;1.21;98.22
59329;BME280;45100;46.926;7.452;2023-12-07T11:17:50;95447.69;;;1.21;97.32
59329;BME280;45100;46.926;7.452;2023-12-07T11:20:04;95444.16;;;1.16;96.91
59329;BME280;45100;46.926;7.452;2023-12-07T11:22:34;95440.88;;;1.09;97.14
59329;BME280;45100;46.926;7.452;2023-12-07T11:25:05;95443.64;;;1.06;97.64
59329;BME280;45100;46.926;7.452;2023-12-07T11:27:35;95442.91;;;1.06;97.99
59329;BME280;45100;46.926;7.452;2023-12-07T11:30:08;95440.00;;;1.08;98.63
59329;BME280;45100;46.926;7.452;2023-12-07T11:32:36;95441.50;;;1.10;98.28
59329;BME280;45100;46.926;7.452;2023-12-07T11:35:11;95440.88;;;1.09;97.96
59329;BME280;45100;46.926;7.452;2023-12-07T11:38:04;95434.12;;;1.08;98.48
59329;BME280;45100;46.926;7.452;2023-12-07T11:40:08;95426.69;;;1.13;99.34
59329;BME280;45100;46.926;7.452;2023-12-07T11:42:38;95412.73;;;1.19;99.38
59329;BME280;45100;46.926;7.452;2023-12-07T11:45:09;95405.80;;;1.23;99.50
59329;BME280;45100;46.926;7.452;2023-12-07T11:47:39;95398.72;;;1.26;99.50
59329;BME280;45100;46.926;7.452;2023-12-07T11:50:10;95408.41;;;1.27;99.26
59329;BME280;45100;46.926;7.452;2023-12-07T11:52:41;95411.67;;;1.28;99.06
59329;BME280;45100;46.926;7.452;2023-12-07T11:55:12;95409.28;;;1.26;98.68
59329;BME280;45100;46.926;7.452;2023-12-07T11:57:42;95414.70;;;1.23;98.09
59329;BME280;45100;46.926;7.452;2023-12-07T12:00:14;95419.45;;;1.20;97.86
59329;BME280;45100;46.926;7.452;2023-12-07T12:02:47;95425.41;;;1.17;98.08
59329;BME280;45100;46.926;7.452;2023-12-07T12:05:14;95432.75;;;1.13;97.87
59329;BME280;45100;46.926;7.452;2023-12-07T12:07:45;95439.25;;;1.07;98.05
59329;BME280;45100;46.926;7.452;2023-12-07T12:10:16;95430.89;;;1.00;98.66
59329;BME280;45100;46.926;7.452;2023-12-07T12:12:46;95397.31;;;0.96;98.88
59329;BME280;45100;46.926;7.452;2023-12-07T12:15:17;95370.56;;;1.01;100.00
59329;BME280;45100;46.926;7.452;2023-12-07T12:17:47;95363.83;;;1.13;100.00
59329;BME280;45100;46.926;7.452;2023-12-07T12:20:18;95379.66;;;1.20;98.87
59329;BME280;45100;46.926;7.452;2023-12-07T12:25:26;95371.79;;;1.28;98.03
59329;BME280;45100;46.926;7.452;2023-12-07T12:27:53;95381.34;;;1.30;98.10
59329;BME280;45100;46.926;7.452;2023-12-07T12:30:24;95378.02;;;1.31;97.89
59329;BME280;45100;46.926;7.452;2023-12-07T12:32:53;95369.59;;;1.32;98.22
59329;BME280;45100;46.926;7.452;2023-12-07T12:35:23;95350.45;;;1.31;98.02
59329;BME280;45100;46.926;7.452;2023-12-07T12:37:55;95348.73;;;1.30;97.85
59329;BME280;45100;46.926;7.452;2023-12-07T12:40:27;95346.89;;;1.26;97.84
59329;BME280;45100;46.926;7.452;2023-12-07T12:42:54;95357.59;;;1.22;98.04
59329;BME280;45100;46.926;7.452;2023-12-07T12:45:25;95361.66;;;1.18;98.11
59329;BME280;45100;46.926;7.452;2023-12-07T12:47:57;95360.59;;;1.09;98.08
59329;BME280;45100;46.926;7.452;2023-12-07T12:50:40;95351.59;;;1.05;99.00
59329;BME280;45100;46.926;7.452;2023-12-07T12:53:03;95347.73;;;1.04;99.66
59329;BME280;45100;46.926;7.452;2023-12-07T12:55:30;95344.36;;;1.06;99.75
59329;BME280;45100;46.926;7.452;2023-12-07T12:57:58;95342.93;;;1.05;99.71
59329;BME280;45100;46.926;7.452;2023-12-07T13:00:28;95338.05;;;1.06;100.00
59329;BME280;45100;46.926;7.452;2023-12-07T13:03:04;95335.44;;;1.10;100.00
59329;BME280;45100;46.926;7.452;2023-12-07T13:05:30;95341.98;;;1.12;100.00
59329;BME280;45100;46.926;7.452;2023-12-07T13:08:00;95343.00;;;1.09;100.00
59329;BME280;45100;46.926;7.452;2023-12-07T13:10:30;95348.30;;;1.00;100.00
59329;BME280;45100;46.926;7.452;2023-12-07T13:13:01;95344.75;;;0.95;100.00
59329;BME280;45100;46.926;7.452;2023-12-07T13:15:31;95345.20;;;0.89;100.00
59329;BME280;45100;46.926;7.452;2023-12-07T13:18:02;95334.68;;;0.83;100.00
59329;BME280;45100;46.926;7.452;2023-12-07T13:20:33;95323.38;;;0.80;100.00
59329;BME280;45100;46.926;7.452;2023-12-07T13:23:04;95321.99;;;0.81;100.00
59329;BME280;45100;46.926;7.452;2023-12-07T13:25:33;95318.47;;;0.86;100.00
59329;BME280;45100;46.926;7.452;2023-12-07T13:28:04;95312.23;;;0.90;100.00
59329;BME280;45100;46.926;7.452;2023-12-07T13:30:36;95311.12;;;0.95;100.00
59329;BME280;45100;46.926;7.452;2023-12-07T13:33:05;95315.69;;;0.97;100.00
59329;BME280;45100;46.926;7.452;2023-12-07T13:35:35;95319.02;;;0.97;100.00
59329;BME280;45100;46.926;7.452;2023-12-07T13:40:39;95307.34;;;0.86;100.00
59329;BME280;45100;46.926;7.452;2023-12-07T13:43:09;95298.22;;;0.81;100.00
59329;BME280;45100;46.926;7.452;2023-12-07T13:45:39;95296.33;;;0.80;100.00
59329;BME280;45100;46.926;7.452;2023-12-07T13:48:10;95289.77;;;0.82;100.00
59329;BME280;45100;46.926;7.452;2023-12-07T13:50:42;95285.36;;;0.87;100.00
59329;BME280;45100;46.926;7.452;2023-12-07T13:53:11;95285.34;;;0.88;100.00
59329;BME280;45100;46.926;7.452;2023-12-07T13:55:41;95281.62;;;0.93;100.00
59329;BME280;45100;46.926;7.452;2023-12-07T13:58:12;95274.61;;;0.95;100.00
59329;BME280;45100;46.926;7.452;2023-12-07T14:00:46;95267.97;;;1.00;100.00
59329;BME280;45100;46.926;7.452;2023-12-07T14:03:13;95260.02;;;1.09;100.00
59329;BME280;45100;46.926;7.452;2023-12-07T14:05:46;95257.89;;;1.19;100.00
59329;BME280;45100;46.926;7.452;2023-12-07T14:08:15;95249.25;;;1.26;100.00
59329;BME280;45100;46.926;7.452;2023-12-07T14:10:45;95242.55;;;1.33;100.00
59329;BME280;45100;46.926;7.452;2023-12-07T14:13:18;95235.80;;;1.39;100.00
59329;BME280;45100;46.926;7.452;2023-12-07T14:15:46;95231.28;;;1.44;100.00
59329;BME280;45100;46.926;7.452;2023-12-07T14:18:17;95227.78;;;1.44;100.00
59329;BME280;45100;46.926;7.452;2023-12-07T14:20:47;95226.50;;;1.41;100.00
59329;BME280;45100;46.926;7.452;2023-12-07T14:23:19;95217.54;;;1.37;100.00
59329;BME280;45100;46.926;7.452;2023-12-07T14:25:51;95220.86;;;1.35;100.00
59329;BME280;45100;46.926;7.452;2023-12-07T14:28:19;95221.41;;;1.32;99.81
59329;BME280;45100;46.926;7.452;2023-12-07T14:30:50;95209.05;;;1.24;99.42
59329;BME280;45100;46.926;7.452;2023-12-07T14:33:20;95199.97;;;1.18;99.70
59329;BME280;45100;46.926;7.452;2023-12-07T14:35:50;95195.67;;;1.14;100.00
59329;BME280;45100;46.926;7.452;2023-12-07T14:38:21;95186.37;;;1.11;100.00
59329;BME280;45100;46.926;7.452;2023-12-07T14:40:52;95182.69;;;1.09;100.00
59329;BME280;45100;46.926;7.452;2023-12-07T14:43:22;95172.73;;;1.07;100.00
59329;BME280;45100;46.926;7.452;2023-12-07T14:45:53;95173.60;;;1.04;100.00
59329;BME280;45100;46.926;7.452;2023-12-07T14:48:24;95181.90;;;1.00;100.00
59329;BME280;45100;46.926;7.452;2023-12-07T14:50:54;95187.73;;;0.95;100.00
59329;BME280;45100;46.926;7.452;2023-12-07T14:53:25;95181.94;;;0.88;100.00
59329;BME280;45100;46.926;7.452;2023-12-07T14:55:57;95182.34;;;0.84;100.00
59329;BME280;45100;46.926;7.452;2023-12-07T14:58:25;95182.14;;;0.77;100.00
59329;BME280;45100;46.926;7.452;2023-12-07T15:00:55;95187.75;;;0.72;100.00
59329;BME280;45100;46.926;7.452;2023-12-07T15:03:26;95192.20;;;0.65;100.00
59329;BME280;45100;46.926;7.452;2023-12-07T15:05:56;95186.98;;;0.57;100.00
59329;BME280;45100;46.926;7.452;2023-12-07T15:08:27;95177.02;;;0.48;100.00
59329;BME280;45100;46.926;7.452;2023-12-07T15:10:58;95180.47;;;0.40;100.00
59329;BME280;45100;46.926;7.452;2023-12-07T15:13:28;95172.52;;;0.33;100.00
59329;BME280;45100;46.926;7.452;2023-12-07T15:15:59;95172.17;;;0.30;100.00
59329;BME280;45100;46.926;7.452;2023-12-07T15:18:34;95166.53;;;0.28;100.00
59329;BME280;45100;46.926;7.452;2023-12-07T15:21:03;95159.98;;;0.25;100.00
59329;BME280;45100;46.926;7.452;2023-12-07T15:23:31;95157.77;;;0.21;100.00
59329;BME280;45100;46.926;7.452;2023-12-07T15:26:01;95159.58;;;0.18;100.00
59329;BME280;45100;46.926;7.452;2023-12-07T15:28:31;95155.67;;;0.15;100.00
59329;BME280;45100;46.926;7.452;2023-12-07T15:31:04;95160.41;;;0.12;100.00
59329;BME280;45100;46.926;7.452;2023-12-07T15:33:34;95165.77;;;0.07;100.00
59329;BME280;45100;46.926;7.452;2023-12-07T15:36:04;95159.91;;;0.03;100.00
59329;BME280;45100;46.926;7.452;2023-12-07T15:38:33;95152.74;;;0.01;100.00
59329;BME280;45100;46.926;7.452;2023-12-07T15:41:04;95148.66;;;-0.02;100.00
59329;BME280;45100;46.926;7.452;2023-12-07T15:43:35;95147.97;;;-0.03;100.00
59329;BME280;45100;46.926;7.452;2023-12-07T15:46:05;95140.30;;;-0.04;100.00
59329;BME280;45100;46.926;7.452;2023-12-07T15:48:35;95142.73;;;-0.04;100.00
59329;BME280;45100;46.926;7.452;2023-12-07T15:51:07;95153.87;;;-0.04;100.00
59329;BME280;45100;46.926;7.452;2023-12-07T15:53:39;95159.62;;;-0.05;100.00
59329;BME280;45100;46.926;7.452;2023-12-07T15:56:08;95165.84;;;-0.07;100.00
59329;BME280;45100;46.926;7.452;2023-12-07T15:58:38;95160.02;;;-0.10;100.00
59329;BME280;45100;46.926;7.452;2023-12-07T16:01:09;95162.58;;;-0.10;100.00
59329;BME280;45100;46.926;7.452;2023-12-07T16:06:12;95161.83;;;-0.08;100.00
59329;BME280;45100;46.926;7.452;2023-12-07T16:08:43;95162.64;;;-0.09;100.00
59329;BME280;45100;46.926;7.452;2023-12-07T16:11:14;95164.00;;;-0.10;100.00
59329;BME280;45100;46.926;7.452;2023-12-07T16:13:44;95153.99;;;-0.14;100.00
59329;BME280;45100;46.926;7.452;2023-12-07T16:16:15;95152.82;;;-0.19;100.00
59329;BME280;45100;46.926;7.452;2023-12-07T16:18:47;95161.45;;;-0.21;100.00
59329;BME280;45100;46.926;7.452;2023-12-07T16:21:23;95156.99;;;-0.25;100.00
59329;BME280;45100;46.926;7.452;2023-12-07T16:26:21;95151.22;;;-0.33;100.00
59329;BME280;45100;46.926;7.452;2023-12-07T16:28:50;95146.88;;;-0.38;100.00
59329;BME280;45100;46.926;7.452;2023-12-07T16:31:21;95143.25;;;-0.40;100.00
59329;BME280;45100;46.926;7.452;2023-12-07T16:33:53;95133.03;;;-0.37;100.00
59329;BME280;45100;46.926;7.452;2023-12-07T16:36:23;95124.00;;;-0.33;100.00
59329;BME280;45100;46.926;7.452;2023-12-07T16:38:53;95115.89;;;-0.29;100.00
59329;BME280;45100;46.926;7.452;2023-12-07T16:41:24;95109.83;;;-0.28;100.00
59329;BME280;45100;46.926;7.452;2023-12-07T16:43:55;95116.42;;;-0.27;100.00
59329;BME280;45100;46.926;7.452;2023-12-07T16:46:26;95125.25;;;-0.28;100.00
59329;BME280;45100;46.926;7.452;2023-12-07T16:48:55;95120.48;;;-0.32;100.00
59329;BME280;45100;46.926;7.452;2023-12-07T16:51:26;95123.12;;;-0.36;100.00
59329;BME280;45100;46.926;7.452;2023-12-07T16:53:57;95117.94;;;-0.40;100.00
59329;BME280;45100;46.926;7.452;2023-12-07T16:56:28;95109.45;;;-0.40;100.00
59329;BME280;45100;46.926;7.452;2023-12-07T16:58:58;95098.26;;;-0.39;100.00
59329;BME280;45100;46.926;7.452;2023-12-07T17:01:29;95093.22;;;-0.38;100.00
59329;BME280;45100;46.926;7.452;2023-12-07T17:04:00;95090.59;;;-0.36;100.00
59329;BME280;45100;46.926;7.452;2023-12-07T17:06:31;95089.70;;;-0.37;100.00
59329;BME280;45100;46.926;7.452;2023-12-07T17:09:05;95097.09;;;-0.37;100.00
59329;BME280;45100;46.926;7.452;2023-12-07T17:11:33;95100.41;;;-0.36;100.00
59329;BME280;45100;46.926;7.452;2023-12-07T17:14:03;95099.48;;;-0.33;100.00
59329;BME280;45100;46.926;7.452;2023-12-07T17:16:34;95095.59;;;-0.31;100.00
59329;BME280;45100;46.926;7.452;2023-12-07T17:19:05;95087.81;;;-0.29;100.00
59329;BME280;45100;46.926;7.452;2023-12-07T17:21:36;95089.89;;;-0.28;100.00
59329;BME280;45100;46.926;7.452;2023-12-07T17:29:15;95082.86;;;-0.24;100.00
59329;BME280;45100;46.926;7.452;2023-12-07T17:31:47;95084.27;;;-0.24;100.00
59329;BME280;45100;46.926;7.452;2023-12-07T17:34:16;95097.11;;;-0.23;100.00
59329;BME280;45100;46.926;7.452;2023-12-07T17:39:20;95099.50;;;-0.23;100.00
59329;BME280;45100;46.926;7.452;2023-12-07T17:41:50;95093.22;;;-0.23;100.00
59329;BME280;45100;46.926;7.452;2023-12-07T17:44:20;95100.55;;;-0.24;100.00
59329;BME280;45100;46.926;7.452;2023-12-07T17:46:51;95109.45;;;-0.25;100.00
59329;BME280;45100;46.926;7.452;2023-12-07T17:49:22;95107.52;;;-0.28;100.00
59329;BME280;45100;46.926;7.452;2023-12-07T17:51:53;95103.93;;;-0.34;100.00
59329;BME280;45100;46.926;7.452;2023-12-07T17:54:24;95108.72;;;-0.38;100.00
59329;BME280;45100;46.926;7.452;2023-12-07T17:56:54;95107.52;;;-0.38;100.00
59329;BME280;45100;46.926;7.452;2023-12-07T17:59:25;95117.34;;;-0.38;100.00
59329;BME280;45100;46.926;7.452;2023-12-07T18:01:56;95125.42;;;-0.36;100.00
59329;BME280;45100;46.926;7.452;2023-12-07T18:04:26;95119.00;;;-0.36;100.00
59329;BME280;45100;46.926;7.452;2023-12-07T18:06:57;95125.28;;;-0.38;100.00
59329;BME280;45100;46.926;7.452;2023-12-07T18:09:28;95134.53;;;-0.39;100.00
59329;BME280;45100;46.926;7.452;2023-12-07T18:11:59;95155.47;;;-0.42;100.00
59329;BME280;45100;46.926;7.452;2023-12-07T18:14:29;95161.60;;;-0.49;100.00
59329;BME280;45100;46.926;7.452;2023-12-07T18:17:00;95167.39;;;-0.52;100.00
59329;BME280;45100;46.926;7.452;2023-12-07T18:19:31;95172.02;;;-0.56;100.00
59329;BME280;45100;46.926;7.452;2023-12-07T18:22:02;95172.17;;;-0.61;100.00
59329;BME280;45100;46.926;7.452;2023-12-07T18:24:32;95170.16;;;-0.64;100.00
59329;BME280;45100;46.926;7.452;2023-12-07T18:27:03;95154.45;;;-0.68;100.00
59329;BME280;45100;46.926;7.452;2023-12-07T18:29:38;95145.38;;;-0.71;100.00
59329;BME280;45100;46.926;7.452;2023-12-07T18:32:04;95132.64;;;-0.72;100.00
59329;BME280;45100;46.926;7.452;2023-12-07T18:34:34;95131.47;;;-0.70;100.00
59329;BME280;45100;46.926;7.452;2023-12-07T18:37:05;95123.09;;;-0.66;100.00
59329;BME280;45100;46.926;7.452;2023-12-07T18:39:36;95113.22;;;-0.65;100.00
59329;BME280;45100;46.926;7.452;2023-12-07T18:42:05;95108.52;;;-0.63;100.00
59329;BME280;45100;46.926;7.452;2023-12-07T18:44:36;95101.02;;;-0.58;100.00
59329;BME280;45100;46.926;7.452;2023-12-07T18:47:07;95097.51;;;-0.53;100.00
59329;BME280;45100;46.926;7.452;2023-12-07T18:49:37;95095.94;;;-0.50;100.00
59329;BME280;45100;46.926;7.452;2023-12-07T18:52:08;95098.23;;;-0.46;100.00
59329;BME280;45100;46.926;7.452;2023-12-07T18:54:40;95103.31;;;-0.43;100.00
59329;BME280;45100;46.926;7.452;2023-12-07T18:57:09;95106.11;;;-0.39;100.00
59329;BME280;45100;46.926;7.452;2023-12-07T18:59:40;95100.08;;;-0.35;100.00
59329;BME280;45100;46.926;7.452;2023-12-07T19:02:11;95105.44;;;-0.33;100.00
59329;BME280;45100;46.926;7.452;2023-12-07T19:04:42;95099.52;;;-0.32;100.00
59329;BME280;45100;46.926;7.452;2023-12-07T19:07:12;95098.47;;;-0.31;100.00
59329;BME280;45100;46.926;7.452;2023-12-07T19:09:43;95092.19;;;-0.30;100.00
59329;BME280;45100;46.926;7.452;2023-12-07T19:12:13;95088.45;;;-0.29;100.00
59329;BME280;45100;46.926;7.452;2023-12-07T19:14:44;95086.58;;;-0.31;100.00
59329;BME280;45100;46.926;7.452;2023-12-07T19:17:15;95077.86;;;-0.32;100.00
59329;BME280;45100;46.926;7.452;2023-12-07T19:19:46;95082.50;;;-0.34;100.00
59329;BME280;45100;46.926;7.452;2023-12-07T19:22:17;95079.22;;;-0.37;100.00
59329;BME280;45100;46.926;7.452;2023-12-07T19:24:47;95074.67;;;-0.39;100.00
59329;BME280;45100;46.926;7.452;2023-12-07T19:27:18;95071.58;;;-0.42;100.00
59329;BME280;45100;46.926;7.452;2023-12-07T19:29:49;95065.84;;;-0.46;100.00
59329;BME280;45100;46.926;7.452;2023-12-07T19:32:20;95062.32;;;-0.47;100.00
59329;BME280;45100;46.926;7.452;2023-12-07T19:34:51;95061.17;;;-0.50;100.00
59329;BME280;45100;46.926;7.452;2023-12-07T19:37:21;95056.88;;;-0.50;100.00
59329;BME280;45100;46.926;7.452;2023-12-07T19:39:52;95063.99;;;-0.48;100.00
59329;BME280;45100;46.926;7.452;2023-12-07T19:42:23;95065.62;;;-0.46;100.00
59329;BME280;45100;46.926;7.452;2023-12-07T19:44:54;95059.85;;;-0.47;100.00
59329;BME280;45100;46.926;7.452;2023-12-07T19:47:25;95055.11;;;-0.49;100.00
59329;BME280;45100;46.926;7.452;2023-12-07T19:49:56;95041.58;;;-0.50;100.00
59329;BME280;45100;46.926;7.452;2023-12-07T19:52:27;95038.89;;;-0.50;100.00
59329;BME280;45100;46.926;7.452;2023-12-07T19:55:00;95036.09;;;-0.50;100.00
59329;BME280;45100;46.926;7.452;2023-12-07T19:57:29;95035.16;;;-0.50;100.00
59329;BME280;45100;46.926;7.452;2023-12-07T19:59:59;95025.38;;;-0.49;100.00
59329;BME280;45100;46.926;7.452;2023-12-07T20:02:35;95023.30;;;-0.49;100.00
59329;BME280;45100;46.926;7.452;2023-12-07T20:07:33;95015.22;;;-0.45;100.00
59329;BME280;45100;46.926;7.452;2023-12-07T20:10:03;95009.33;;;-0.44;100.00
59329;BME280;45100;46.926;7.452;2023-12-07T20:12:36;95005.36;;;-0.46;100.00
59329;BME280;45100;46.926;7.452;2023-12-07T20:15:05;94999.19;;;-0.45;100.00
59329;BME280;45100;46.926;7.452;2023-12-07T20:17:35;95000.61;;;-0.45;100.00
59329;BME280;45100;46.926;7.452;2023-12-07T20:20:07;95000.44;;;-0.46;100.00
59329;BME280;45100;46.926;7.452;2023-12-07T20:22:36;95004.27;;;-0.46;100.00
59329;BME280;45100;46.926;7.452;2023-12-07T20:25:07;95008.22;;;-0.46;100.00
59329;BME280;45100;46.926;7.452;2023-12-07T20:30:11;95000.70;;;-0.43;100.00
59329;BME280;45100;46.926;7.452;2023-12-07T20:32:41;94989.68;;;-0.42;100.00
59329;BME280;45100;46.926;7.452;2023-12-07T20:35:11;94984.03;;;-0.42;100.00
59329;BME280;45100;46.926;7.452;2023-12-07T20:37:42;94986.42;;;-0.43;100.00
